createdAt,value
2023-05-07T00:02:10.201Z,101291.31
2023-05-07T00:04:42.573Z,101316.38
2023-05-07T00:07:12.336Z,101313.63
2023-05-07T00:09:42.106Z,101305.94
2023-05-07T00:12:12.000Z,101310.03
2023-05-07T00:14:41.830Z,101301.44
2023-05-07T00:17:11.635Z,101314.84
2023-05-07T00:19:43.996Z,101317.41
2023-05-07T00:22:13.744Z,101301.63
2023-05-07T00:24:43.500Z,101303.84
2023-05-07T00:27:13.796Z,101303.78
2023-05-07T00:29:43.536Z,101301.34
2023-05-07T00:32:13.444Z,101302.00
2023-05-07T00:34:46.445Z,101303.84
2023-05-07T00:37:16.181Z,101318.09
2023-05-07T00:39:45.893Z,101238.31
2023-05-07T00:42:16.198Z,101312.25
2023-05-07T00:44:46.496Z,101317.50
2023-05-07T00:47:17.433Z,101317.53
2023-05-07T00:49:49.851Z,101320.09
2023-05-07T00:52:21.100Z,101321.09
2023-05-07T00:54:51.961Z,101316.69
2023-05-07T00:57:22.330Z,101313.13
2023-05-07T00:59:52.690Z,101321.84
2023-05-07T01:02:22.441Z,101319.13
2023-05-07T01:04:54.766Z,101313.09
2023-05-07T01:07:26.276Z,101275.81
2023-05-07T01:09:56.351Z,101320.81
2023-05-07T01:12:26.489Z,101320.03
2023-05-07T01:14:56.335Z,101286.97
2023-05-07T01:17:26.588Z,101313.84
2023-05-07T01:19:59.130Z,101315.47
2023-05-07T01:22:37.755Z,101241.88
2023-05-07T01:25:09.317Z,101307.53
2023-05-07T01:27:42.826Z,101288.31
2023-05-07T01:30:14.183Z,101300.25
2023-05-07T01:32:49.872Z,101308.63
2023-05-07T01:35:23.629Z,101318.38
2023-05-07T01:37:57.030Z,101326.41
2023-05-07T01:40:28.065Z,101300.25
2023-05-07T01:42:58.667Z,101284.81
2023-05-07T01:45:29.436Z,101312.09
2023-05-07T01:47:59.457Z,101326.69
2023-05-07T01:50:29.835Z,101281.75
2023-05-07T01:53:02.314Z,101258.13
2023-05-07T01:55:32.680Z,101307.28
2023-05-07T01:58:02.672Z,101273.94
2023-05-07T02:00:32.796Z,101284.47
2023-05-07T02:03:02.925Z,101296.53
2023-05-07T02:05:46.024Z,101307.00
2023-05-07T02:08:25.931Z,101333.72
2023-05-07T02:10:55.744Z,101338.69
2023-05-07T02:13:26.144Z,101234.16
2023-05-07T02:15:55.966Z,101314.00
2023-05-07T02:18:27.838Z,101297.75
2023-05-07T02:20:57.926Z,101289.38
2023-05-07T02:23:30.406Z,101338.28
2023-05-07T02:26:00.565Z,101175.47
2023-05-07T02:28:30.453Z,101309.59
2023-05-07T02:31:03.928Z,101290.16
2023-05-07T02:33:34.367Z,101299.63
2023-05-07T02:36:10.546Z,101347.69
2023-05-07T02:38:48.905Z,101309.16
2023-05-07T02:41:18.726Z,101341.03
2023-05-07T02:43:48.523Z,101343.53
2023-05-07T02:46:18.824Z,101349.50
2023-05-07T02:48:53.145Z,101299.44
2023-05-07T02:51:26.150Z,101344.84
2023-05-07T02:54:02.060Z,101367.16
2023-05-07T02:56:32.800Z,101355.00
2023-05-07T02:59:02.555Z,101340.16
2023-05-07T03:01:37.142Z,101348.22
2023-05-07T03:04:09.570Z,101329.34
2023-05-07T03:06:39.371Z,101336.47
2023-05-07T03:09:12.172Z,101310.59
2023-05-07T03:11:42.217Z,101311.94
2023-05-07T03:14:11.987Z,101238.56
2023-05-07T03:16:42.670Z,101338.75
2023-05-07T03:19:12.426Z,101332.53
2023-05-07T03:21:42.446Z,101304.78
2023-05-07T03:24:14.798Z,101155.25
2023-05-07T03:26:44.567Z,101298.34
2023-05-07T03:29:14.449Z,101320.97
2023-05-07T03:31:44.565Z,101317.28
2023-05-07T03:34:14.419Z,101312.91
2023-05-07T03:36:44.201Z,101301.78
2023-05-07T03:39:18.437Z,101266.00
2023-05-07T03:41:48.312Z,101317.38
2023-05-07T03:44:18.102Z,101287.06
2023-05-07T03:46:48.399Z,101301.94
2023-05-07T03:49:18.284Z,101320.91
2023-05-07T03:51:48.054Z,101317.31
2023-05-07T03:54:20.498Z,101245.75
2023-05-07T03:56:51.077Z,101320.97
2023-05-07T03:59:20.909Z,101342.28
2023-05-07T04:01:51.586Z,101335.56
2023-05-07T04:04:23.898Z,101327.84
2023-05-07T04:06:54.244Z,101273.31
2023-05-07T04:09:27.821Z,101348.63
2023-05-07T04:11:59.950Z,101332.06
2023-05-07T04:14:29.810Z,101240.34
2023-05-07T04:16:59.895Z,101288.88
2023-05-07T04:19:30.317Z,101332.31
2023-05-07T04:22:00.172Z,101305.47
2023-05-07T04:24:35.766Z,101323.75
2023-05-07T04:27:07.595Z,101353.00
2023-05-07T04:29:37.574Z,101357.22
2023-05-07T04:32:08.453Z,101229.03
2023-05-07T04:34:38.574Z,101348.59
2023-05-07T04:37:08.486Z,101349.22
2023-05-07T04:39:41.055Z,101330.22
2023-05-07T04:42:11.472Z,101324.78
2023-05-07T04:44:41.357Z,101312.00
2023-05-07T04:47:11.198Z,101319.72
2023-05-07T04:49:42.318Z,101296.38
2023-05-07T04:52:13.339Z,101325.75
2023-05-07T04:54:46.166Z,101366.28
2023-05-07T04:57:16.048Z,101370.47
2023-05-07T04:59:46.108Z,101357.56
2023-05-07T05:02:16.057Z,101336.13
2023-05-07T05:04:46.172Z,101301.91
2023-05-07T05:07:16.348Z,101319.44
2023-05-07T05:09:48.872Z,101345.97
2023-05-07T05:12:18.905Z,101333.00
2023-05-07T05:14:48.830Z,101362.56
2023-05-07T05:17:19.238Z,101315.81
2023-05-07T05:19:49.764Z,101398.47
2023-05-07T05:22:20.120Z,101390.88
2023-05-07T05:24:52.555Z,101403.28
2023-05-07T05:27:22.723Z,101396.44
2023-05-07T05:29:52.734Z,101403.28
2023-05-07T05:32:22.655Z,101405.75
2023-05-07T05:34:54.368Z,101378.72
2023-05-07T05:37:24.163Z,101378.53
2023-05-07T05:39:57.432Z,101366.81
2023-05-07T05:42:29.595Z,101403.13
2023-05-07T05:44:59.434Z,101359.66
2023-05-07T05:47:30.199Z,101395.25
2023-05-07T05:50:00.106Z,101384.56
2023-05-07T05:52:29.944Z,101351.59
2023-05-07T05:55:02.775Z,101376.75
2023-05-07T05:57:32.575Z,101399.91
2023-05-07T06:00:02.406Z,101394.53
2023-05-07T06:02:34.766Z,101396.19
2023-05-07T06:05:04.917Z,101404.34
2023-05-07T06:07:35.802Z,101406.63
2023-05-07T06:10:09.758Z,101383.84
2023-05-07T06:12:39.762Z,101409.00
2023-05-07T06:15:10.790Z,101405.56
2023-05-07T06:17:41.056Z,101411.03
2023-05-07T06:20:14.634Z,101411.13
2023-05-07T06:22:44.477Z,101402.81
2023-05-07T06:25:18.493Z,101407.34
2023-05-07T06:27:48.301Z,101412.56
2023-05-07T06:30:18.370Z,101333.69
2023-05-07T06:32:48.219Z,101400.19
2023-05-07T06:35:18.438Z,101424.31
2023-05-07T06:37:48.670Z,101400.72
2023-05-07T06:40:26.167Z,101400.31
2023-05-07T06:42:56.309Z,101409.84
2023-05-07T06:45:33.337Z,101377.25
2023-05-07T06:48:03.603Z,101417.78
2023-05-07T06:50:37.440Z,101431.16
2023-05-07T06:53:07.405Z,101432.03
2023-05-07T06:55:39.782Z,101436.13
2023-05-07T06:58:10.128Z,101426.88
2023-05-07T07:00:41.920Z,101409.41
2023-05-07T07:03:12.148Z,101433.84
2023-05-07T07:05:43.922Z,101398.19
2023-05-07T07:08:14.323Z,101427.63
2023-05-07T07:10:46.700Z,101445.16
2023-05-07T07:13:16.527Z,101433.84
2023-05-07T07:15:47.208Z,101379.69
2023-05-07T07:18:17.029Z,101450.75
2023-05-07T07:20:47.847Z,101456.66
2023-05-07T07:23:17.609Z,101456.28
2023-05-07T07:25:50.307Z,101455.56
2023-05-07T07:28:20.839Z,101424.38
2023-05-07T07:30:50.852Z,101462.31
2023-05-07T07:33:21.364Z,101453.66
2023-05-07T07:35:51.209Z,101459.81
2023-05-07T07:38:20.998Z,101441.81
2023-05-07T07:40:54.186Z,101362.31
2023-05-07T07:43:24.249Z,101404.34
2023-05-07T07:45:54.339Z,101439.88
2023-05-07T07:48:24.301Z,101441.63
2023-05-07T07:50:54.445Z,101454.09
2023-05-07T07:53:24.489Z,101448.16
2023-05-07T07:55:59.324Z,101424.34
2023-05-07T07:58:31.925Z,101428.19
2023-05-07T08:01:02.256Z,101460.31
2023-05-07T08:03:33.636Z,101461.72
2023-05-07T08:06:05.048Z,101440.06
2023-05-07T08:08:36.266Z,101468.84
2023-05-07T08:11:08.735Z,101462.75
2023-05-07T08:13:40.560Z,101474.75
2023-05-07T08:16:10.744Z,101476.81
2023-05-07T08:18:40.965Z,101453.63
2023-05-07T08:21:10.888Z,101448.38
2023-05-07T08:23:40.745Z,101435.47
2023-05-07T08:26:14.110Z,101472.44
2023-05-07T08:28:43.980Z,101186.63
2023-05-07T08:31:13.879Z,101441.50
2023-05-07T08:33:45.170Z,101467.69
2023-05-07T08:36:14.971Z,101466.13
2023-05-07T08:38:46.880Z,101456.63
2023-05-07T08:41:19.852Z,101451.09
2023-05-07T08:43:52.138Z,101384.69
2023-05-07T08:46:24.732Z,101472.66
2023-05-07T08:48:58.184Z,101481.53
2023-05-07T08:51:28.258Z,101484.16
2023-05-07T08:53:58.256Z,101485.06
2023-05-07T08:56:35.716Z,101491.31
2023-05-07T08:59:05.532Z,101469.97
2023-05-07T09:01:36.923Z,101457.03
2023-05-07T09:04:08.277Z,101442.38
2023-05-07T09:06:39.218Z,101474.38
2023-05-07T09:09:09.329Z,101447.97
2023-05-07T09:11:42.045Z,101367.72
2023-05-07T09:14:12.139Z,101459.34
2023-05-07T09:16:45.276Z,101372.84
2023-05-07T09:19:15.246Z,101484.50
2023-05-07T09:21:48.763Z,101466.56
2023-05-07T09:24:20.020Z,101451.31
2023-05-07T09:26:52.460Z,101474.88
2023-05-07T09:29:22.639Z,101433.97
2023-05-07T09:31:52.485Z,101476.75
2023-05-07T09:34:22.456Z,101476.09
2023-05-07T09:36:52.714Z,101364.69
2023-05-07T09:39:23.242Z,101466.94
2023-05-07T09:41:55.959Z,101406.59
2023-05-07T09:44:35.815Z,101448.44
2023-05-07T09:47:09.497Z,101477.13
2023-05-07T09:49:50.191Z,101473.81
2023-05-07T09:52:24.496Z,101462.75
2023-05-07T09:55:00.349Z,101474.19
2023-05-07T09:57:35.303Z,101455.50
2023-05-07T10:00:10.732Z,101472.78
2023-05-07T10:02:53.782Z,101484.84
2023-05-07T10:05:34.487Z,101472.78
2023-05-07T10:08:05.737Z,101466.06
2023-05-07T10:10:39.189Z,101480.13
2023-05-07T10:13:15.734Z,101483.53
2023-05-07T10:15:51.508Z,101475.19
2023-05-07T10:18:24.890Z,101483.94
2023-05-07T10:20:57.569Z,101489.22
2023-05-07T10:23:28.325Z,101483.25
2023-05-07T10:26:03.505Z,101462.34
2023-05-07T10:28:42.438Z,101489.53
2023-05-07T10:31:35.420Z,101486.97
2023-05-07T10:34:11.734Z,101486.88
2023-05-07T10:36:43.498Z,101502.34
2023-05-07T10:39:14.006Z,101499.72
2023-05-07T10:41:44.310Z,101496.69
2023-05-07T10:44:29.147Z,101512.94
2023-05-07T10:47:10.720Z,101493.00
2023-05-07T10:50:27.217Z,101499.84
2023-05-07T10:53:25.457Z,101505.94
2023-05-07T10:56:32.661Z,101496.66
2023-05-07T10:59:35.169Z,101490.69
2023-05-07T11:02:15.533Z,101491.28
2023-05-07T11:05:26.264Z,101469.59
2023-05-07T11:08:08.621Z,101483.69
2023-05-07T11:10:55.069Z,101492.34
2023-05-07T11:13:48.586Z,101477.59
2023-05-07T11:16:29.109Z,101482.28
2023-05-07T11:19:57.661Z,101460.88
2023-05-07T11:22:44.702Z,101492.75
2023-05-07T11:25:29.551Z,101478.81
2023-05-07T11:28:11.541Z,101382.00
2023-05-07T11:30:47.621Z,101483.63
2023-05-07T11:33:21.343Z,101486.13
2023-05-07T11:35:54.518Z,101504.34
2023-05-07T11:38:29.966Z,101503.53
2023-05-07T11:41:01.833Z,101509.63
2023-05-07T11:43:32.025Z,101505.34
2023-05-07T11:46:11.145Z,101476.44
2023-05-07T11:48:42.647Z,101493.72
2023-05-07T11:51:13.294Z,101509.22
2023-05-07T11:53:46.629Z,101497.91
2023-05-07T11:56:17.870Z,101510.16
2023-05-07T11:58:49.898Z,101487.84
2023-05-07T12:01:20.482Z,101489.69
2023-05-07T12:03:50.349Z,101508.72
2023-05-07T12:06:20.888Z,101502.03
2023-05-07T12:08:53.324Z,101476.91
2023-05-07T12:11:27.434Z,101514.00
2023-05-07T12:13:59.877Z,101513.84
2023-05-07T12:16:30.401Z,101472.50
2023-05-07T12:19:00.779Z,101501.13
2023-05-07T12:21:30.831Z,101502.91
2023-05-07T12:24:03.275Z,101470.94
2023-05-07T12:26:33.030Z,101484.81
2023-05-07T12:29:02.820Z,101489.19
2023-05-07T12:31:32.668Z,101493.63
2023-05-07T12:34:02.435Z,101490.94
2023-05-07T12:36:40.701Z,101463.28
2023-05-07T12:39:13.441Z,101475.97
2023-05-07T12:41:59.704Z,101489.50
2023-05-07T12:44:33.932Z,101455.72
2023-05-07T12:47:06.069Z,101494.81
2023-05-07T12:49:39.881Z,101489.63
2023-05-07T12:52:10.055Z,101494.81
2023-05-07T12:54:42.526Z,101496.59
2023-05-07T12:57:13.631Z,101492.41
2023-05-07T12:59:44.655Z,101491.88
2023-05-07T13:02:14.471Z,101508.00
2023-05-07T13:04:45.167Z,101488.06
2023-05-07T13:07:14.897Z,101468.19
2023-05-07T13:09:49.139Z,101492.97
2023-05-07T13:12:18.887Z,101492.16
2023-05-07T13:14:48.652Z,101483.66
2023-05-07T13:17:19.871Z,101474.38
2023-05-07T13:19:49.770Z,101463.97
2023-05-07T13:22:19.497Z,101485.59
2023-05-07T13:24:51.807Z,101458.38
2023-05-07T13:27:21.860Z,101414.94
2023-05-07T13:29:51.628Z,101434.03
2023-05-07T13:32:21.441Z,101464.06
2023-05-07T13:34:51.597Z,101483.09
2023-05-07T13:37:21.406Z,101489.13
2023-05-07T13:39:53.781Z,101473.41
2023-05-07T13:42:23.498Z,101480.41
2023-05-07T13:44:53.228Z,101484.94
2023-05-07T13:47:24.650Z,101486.63
2023-05-07T13:49:54.548Z,101483.13
2023-05-07T13:52:24.576Z,101453.00
2023-05-07T13:54:57.694Z,101491.66
2023-05-07T13:57:27.466Z,101471.88
2023-05-07T13:59:57.251Z,101480.66
2023-05-07T14:02:27.058Z,101473.81
2023-05-07T14:04:56.905Z,101474.72
2023-05-07T14:07:26.673Z,101472.13
2023-05-07T14:09:59.108Z,101463.56
2023-05-07T14:12:29.009Z,101481.56
2023-05-07T14:14:58.776Z,101454.63
2023-05-07T14:17:28.804Z,101478.81
2023-05-07T14:19:58.792Z,101448.72
2023-05-07T14:22:28.569Z,101434.06
2023-05-07T14:25:06.811Z,101478.91
2023-05-07T14:27:37.316Z,101474.56
2023-05-07T14:30:07.728Z,101426.97
2023-05-07T14:32:38.131Z,101475.31
2023-05-07T14:35:08.837Z,101464.00
2023-05-07T14:37:38.653Z,101463.03
2023-05-07T14:40:12.898Z,101477.00
2023-05-07T14:42:43.846Z,101488.28
2023-05-07T14:45:14.566Z,101483.19
2023-05-07T14:47:44.897Z,101485.59
2023-05-07T14:50:14.665Z,101482.06
2023-05-07T14:52:44.470Z,101459.63
2023-05-07T14:55:16.920Z,101488.06
2023-05-07T14:57:46.703Z,101497.50
2023-05-07T15:00:17.341Z,101486.28
2023-05-07T15:02:47.357Z,101493.84
2023-05-07T15:05:18.612Z,101489.66
2023-05-07T15:07:48.360Z,101484.44
2023-05-07T15:10:20.798Z,101502.69
2023-05-07T15:12:50.861Z,101498.38
2023-05-07T15:15:20.665Z,101487.94
2023-05-07T15:17:51.197Z,101478.56
2023-05-07T15:20:21.364Z,101454.31
2023-05-07T15:22:51.155Z,101470.56
2023-05-07T15:25:23.559Z,101496.22
2023-05-07T15:27:53.567Z,101502.09
2023-05-07T15:30:23.326Z,101503.00
2023-05-07T15:32:53.129Z,101497.19
2023-05-07T15:35:23.285Z,101485.00
2023-05-07T15:37:53.525Z,101499.78
2023-05-07T15:40:26.016Z,101508.53
2023-05-07T15:42:58.565Z,101467.09
2023-05-07T15:45:28.421Z,101499.78
2023-05-07T15:47:58.280Z,101487.53
2023-05-07T15:50:29.714Z,101503.47
2023-05-07T15:52:59.477Z,101474.78
2023-05-07T15:55:32.256Z,101483.47
2023-05-07T15:58:02.001Z,101501.56
2023-05-07T16:00:32.065Z,101508.34
2023-05-07T16:03:02.019Z,101498.16
2023-05-07T16:05:31.872Z,101446.28
2023-05-07T16:08:01.657Z,101480.78
2023-05-07T16:10:34.118Z,101493.59
2023-05-07T16:13:04.138Z,101475.47
2023-05-07T16:15:33.936Z,101492.91
2023-05-07T16:18:03.733Z,101498.09
2023-05-07T16:20:33.590Z,101498.09
2023-05-07T16:23:03.852Z,101486.91
2023-05-07T16:25:36.208Z,101497.28
2023-05-07T16:28:06.084Z,101508.47
2023-05-07T16:30:35.898Z,101500.81
2023-05-07T16:33:05.779Z,101508.47
2023-05-07T16:35:35.567Z,101490.41
2023-05-07T16:38:10.229Z,101513.53
2023-05-07T16:40:44.758Z,101505.00
2023-05-07T16:43:14.617Z,101499.00
2023-05-07T16:45:44.323Z,101498.03
2023-05-07T16:48:14.054Z,101510.13
2023-05-07T16:50:44.699Z,101505.03
2023-05-07T16:53:14.996Z,101508.41
2023-05-07T16:55:47.363Z,101506.75
2023-05-07T16:58:17.264Z,101509.22
2023-05-07T17:00:50.766Z,101505.00
2023-05-07T17:03:21.580Z,101511.94
2023-05-07T17:05:51.438Z,101475.56
2023-05-07T17:08:21.178Z,101511.84
2023-05-07T17:10:53.506Z,101507.59
2023-05-07T17:13:23.351Z,101490.84
2023-05-07T17:15:53.196Z,101516.69
2023-05-07T17:18:22.957Z,101502.84
2023-05-07T17:20:52.687Z,101496.63
2023-05-07T17:23:22.660Z,101492.19
2023-05-07T17:25:54.968Z,101482.56
2023-05-07T17:28:24.693Z,101515.00
2023-05-07T17:30:54.492Z,101527.09
2023-05-07T17:33:24.307Z,101527.28
2023-05-07T17:35:56.119Z,101522.09
2023-05-07T17:38:26.040Z,101533.38
2023-05-07T17:40:58.459Z,101535.03
2023-05-07T17:43:28.244Z,101515.97
2023-05-07T17:45:58.058Z,101538.16
2023-05-07T17:48:28.072Z,101517.19
2023-05-07T17:51:04.108Z,101521.47
2023-05-07T17:53:34.024Z,101548.88
2023-05-07T17:56:06.450Z,101549.69
2023-05-07T17:58:46.304Z,101544.47
2023-05-07T18:01:26.424Z,101539.44
2023-05-07T18:03:56.259Z,101534.31
2023-05-07T18:06:26.113Z,101523.72
2023-05-07T18:08:57.049Z,101553.22
2023-05-07T18:11:29.485Z,101503.00
2023-05-07T18:13:59.243Z,101571.09
2023-05-07T18:16:29.281Z,101560.59
2023-05-07T18:18:59.104Z,101533.78
2023-05-07T18:21:28.930Z,101562.06
2023-05-07T18:23:58.727Z,101569.84
2023-05-07T18:26:31.064Z,101567.81
2023-05-07T18:29:00.820Z,101543.47
2023-05-07T18:31:30.583Z,101581.34
2023-05-07T18:34:00.329Z,101539.13
2023-05-07T18:36:30.062Z,101583.19
2023-05-07T18:38:59.791Z,101591.78
2023-05-07T18:41:32.093Z,101590.75
2023-05-07T18:44:01.850Z,101574.00
2023-05-07T18:46:31.890Z,101598.84
2023-05-07T18:49:01.659Z,101602.28
2023-05-07T18:51:31.458Z,101600.56
2023-05-07T18:54:02.283Z,101561.13
2023-05-07T18:56:34.694Z,101578.03
2023-05-07T18:59:04.519Z,101562.59
2023-05-07T19:01:34.414Z,101604.00
2023-05-07T19:04:04.382Z,101604.00
2023-05-07T19:06:34.356Z,101612.13
2023-05-07T19:09:04.994Z,101607.88
2023-05-07T19:11:37.370Z,101589.09
2023-05-07T19:14:07.581Z,101593.97
2023-05-07T19:16:37.465Z,101612.75
2023-05-07T19:19:07.727Z,101624.63
2023-05-07T19:21:37.521Z,101622.03
2023-05-07T19:24:07.727Z,101585.53
2023-05-07T19:26:40.142Z,101621.03
2023-05-07T19:29:17.298Z,101625.34
2023-05-07T19:31:47.683Z,101633.19
2023-05-07T19:34:17.667Z,101623.25
2023-05-07T19:36:47.432Z,101619.59
2023-05-07T19:39:18.681Z,101631.91
2023-05-07T19:41:51.665Z,101645.69
2023-05-07T19:44:21.442Z,101639.38
2023-05-07T19:46:52.774Z,101651.41
2023-05-07T19:49:25.384Z,101652.13
2023-05-07T19:51:55.156Z,101641.66
2023-05-07T19:54:24.929Z,101655.78
2023-05-07T19:56:58.166Z,101651.25
2023-05-07T19:59:28.342Z,101641.25
2023-05-07T20:01:58.271Z,101663.88
2023-05-07T20:04:32.564Z,101665.47
2023-05-07T20:07:02.495Z,101656.84
2023-05-07T20:09:32.344Z,101661.09
2023-05-07T20:12:04.828Z,101615.06
2023-05-07T20:14:34.866Z,101647.00
2023-05-07T20:17:04.731Z,101659.53
2023-05-07T20:19:34.517Z,101667.00
2023-05-07T20:22:04.323Z,101672.00
2023-05-07T20:24:34.109Z,101639.41
2023-05-07T20:27:06.698Z,101677.75
2023-05-07T20:29:36.762Z,101683.56
2023-05-07T20:32:06.746Z,101677.41
2023-05-07T20:34:36.579Z,101685.16
2023-05-07T20:37:06.343Z,101689.56
2023-05-07T20:39:36.132Z,101681.94
2023-05-07T20:42:08.623Z,101669.59
2023-05-07T20:44:38.522Z,101666.94
2023-05-07T20:47:08.478Z,101681.66
2023-05-07T20:49:38.227Z,101671.88
2023-05-07T20:52:08.429Z,101692.56
2023-05-07T20:54:40.464Z,101688.28
2023-05-07T20:57:12.809Z,101685.38
2023-05-07T20:59:42.901Z,101675.72
2023-05-07T21:02:12.708Z,101701.47
2023-05-07T21:04:42.582Z,101692.13
2023-05-07T21:07:12.486Z,101690.84
2023-05-07T21:09:42.623Z,101687.03
2023-05-07T21:12:14.979Z,101701.75
2023-05-07T21:14:44.758Z,101678.19
2023-05-07T21:17:14.591Z,101701.69
2023-05-07T21:19:44.394Z,101701.69
2023-05-07T21:22:14.171Z,101694.59
2023-05-07T21:24:44.099Z,101655.97
2023-05-07T21:27:16.539Z,101705.47
2023-05-07T21:29:46.371Z,101701.03
2023-05-07T21:32:16.126Z,101678.88
2023-05-07T21:34:46.759Z,101710.00
2023-05-07T21:37:16.872Z,101699.34
2023-05-07T21:39:46.669Z,101720.06
2023-05-07T21:42:19.869Z,101721.06
2023-05-07T21:44:51.105Z,101716.00
2023-05-07T21:47:21.128Z,101713.38
2023-05-07T21:49:50.905Z,101707.03
2023-05-07T21:52:26.230Z,101700.06
2023-05-07T21:54:56.147Z,101679.72
2023-05-07T21:57:28.514Z,101705.22
2023-05-07T21:59:58.263Z,101712.13
2023-05-07T22:02:28.178Z,101700.03
2023-05-07T22:04:58.060Z,101699.34
2023-05-07T22:07:27.920Z,101687.97
2023-05-07T22:09:57.669Z,101706.31
2023-05-07T22:12:30.058Z,101715.78
2023-05-07T22:14:59.894Z,101708.84
2023-05-07T22:17:29.724Z,101709.59
2023-05-07T22:19:59.530Z,101703.44
2023-05-07T22:22:29.274Z,101703.31
2023-05-07T22:24:59.016Z,101712.00
2023-05-07T22:27:32.466Z,101709.31
2023-05-07T22:30:02.256Z,101707.50
2023-05-07T22:32:33.376Z,101691.97
2023-05-07T22:35:03.554Z,101708.38
2023-05-07T22:37:33.830Z,101703.25
2023-05-07T22:40:03.733Z,101717.81
2023-05-07T22:42:36.607Z,101704.22
2023-05-07T22:45:06.830Z,101710.59
2023-05-07T22:47:36.637Z,101701.97
2023-05-07T22:50:07.558Z,101697.69
2023-05-07T22:52:37.844Z,101690.09
2023-05-07T22:55:08.675Z,101629.28
2023-05-07T22:57:41.071Z,101691.75
2023-05-07T23:00:12.543Z,101704.69
2023-05-07T23:02:42.505Z,101690.22
2023-05-07T23:05:12.405Z,101696.22
2023-05-07T23:07:42.227Z,101698.03
2023-05-07T23:10:12.611Z,101689.72
2023-05-07T23:12:49.362Z,101707.75
2023-05-07T23:15:19.655Z,101698.41
2023-05-07T23:17:50.112Z,101702.25
2023-05-07T23:20:20.314Z,101702.28
2023-05-07T23:22:50.059Z,101715.34
2023-05-07T23:25:20.110Z,101718.69
2023-05-07T23:27:52.532Z,101682.06
2023-05-07T23:30:22.547Z,101717.44
2023-05-07T23:32:52.399Z,101703.28
2023-05-07T23:35:22.483Z,101683.19
2023-05-07T23:37:52.294Z,101703.78
2023-05-07T23:40:22.070Z,101707.59
2023-05-07T23:42:54.466Z,101713.25
2023-05-07T23:45:24.309Z,101712.03
2023-05-07T23:47:54.298Z,101719.94
2023-05-07T23:50:24.352Z,101721.66
2023-05-07T23:52:54.095Z,101705.28
2023-05-07T23:55:23.856Z,101718.00
2023-05-07T23:57:56.226Z,101682.91
